sensor_id;sensor_type;location;lat;lon;timestamp;temperature;humidity
21489;DHT22;10906;45.194;5.684;2022-09-29T05:00:30;12.40;99.90
21489;DHT22;10906;45.194;5.684;2022-09-29T05:03:15;12.30;99.90
21489;DHT22;10906;45.194;5.684;2022-09-29T05:06:03;12.40;99.90
21489;DHT22;10906;45.194;5.684;2022-09-29T05:08:53;12.40;99.90
21489;DHT22;10906;45.194;5.684;2022-09-29T05:11:45;12.40;99.90
21489;DHT22;10906;45.194;5.684;2022-09-29T05:14:31;12.40;99.90
21489;DHT22;10906;45.194;5.684;2022-09-29T05:17:23;11.70;99.90
21489;DHT22;10906;45.194;5.684;2022-09-29T05:20:10;12.50;99.90
21489;DHT22;10906;45.194;5.684;2022-09-29T05:22:58;12.70;99.90
21489;DHT22;10906;45.194;5.684;2022-09-29T05:25:43;12.50;99.90
21489;DHT22;10906;45.194;5.684;2022-09-29T05:28:44;12.40;99.90
21489;DHT22;10906;45.194;5.684;2022-09-29T05:31:29;12.40;99.90
21489;DHT22;10906;45.194;5.684;2022-09-29T05:34:14;12.50;99.90
21489;DHT22;10906;45.194;5.684;2022-09-29T05:37:02;12.40;99.90
21489;DHT22;10906;45.194;5.684;2022-09-29T05:40:15;12.40;99.90
21489;DHT22;10906;45.194;5.684;2022-09-29T05:43:27;12.30;99.90
21489;DHT22;10906;45.194;5.684;2022-09-29T05:46:14;12.30;99.90
21489;DHT22;10906;45.194;5.684;2022-09-29T05:48:59;12.30;99.90
21489;DHT22;10906;45.194;5.684;2022-09-29T05:51:44;12.40;99.90
21489;DHT22;10906;45.194;5.684;2022-09-29T05:54:28;12.40;99.90
21489;DHT22;10906;45.194;5.684;2022-09-29T05:57:13;12.50;99.90
21489;DHT22;10906;45.194;5.684;2022-09-29T05:59:57;12.50;99.90
21489;DHT22;10906;45.194;5.684;2022-09-29T06:02:41;12.50;99.90
21489;DHT22;10906;45.194;5.684;2022-09-29T06:05:27;12.30;99.90
21489;DHT22;10906;45.194;5.684;2022-09-29T06:08:11;12.40;99.90
21489;DHT22;10906;45.194;5.684;2022-09-29T06:11:02;12.30;99.90
21489;DHT22;10906;45.194;5.684;2022-09-29T06:13:49;12.40;99.90
21489;DHT22;10906;45.194;5.684;2022-09-29T06:16:34;12.40;99.90
21489;DHT22;10906;45.194;5.684;2022-09-29T06:19:19;12.40;99.90
21489;DHT22;10906;45.194;5.684;2022-09-29T06:22:03;12.40;99.90
21489;DHT22;10906;45.194;5.684;2022-09-29T06:24:47;12.40;99.90
21489;DHT22;10906;45.194;5.684;2022-09-29T06:27:31;12.40;99.90
21489;DHT22;10906;45.194;5.684;2022-09-29T06:30:15;12.40;99.90
21489;DHT22;10906;45.194;5.684;2022-09-29T06:33:00;12.40;99.90
21489;DHT22;10906;45.194;5.684;2022-09-29T06:35:46;12.40;99.90
21489;DHT22;10906;45.194;5.684;2022-09-29T06:38:50;12.40;99.90
21489;DHT22;10906;45.194;5.684;2022-09-29T06:41:34;12.40;99.90
21489;DHT22;10906;45.194;5.684;2022-09-29T06:44:20;12.40;99.90
21489;DHT22;10906;45.194;5.684;2022-09-29T06:47:04;12.40;99.90
21489;DHT22;10906;45.194;5.684;2022-09-29T06:49:49;12.40;99.90
21489;DHT22;10906;45.194;5.684;2022-09-29T06:52:33;12.50;99.90
21489;DHT22;10906;45.194;5.684;2022-09-29T06:55:17;12.50;99.90
21489;DHT22;10906;45.194;5.684;2022-09-29T06:58:02;12.50;99.90
21489;DHT22;10906;45.194;5.684;2022-09-29T07:00:46;12.50;99.90
21489;DHT22;10906;45.194;5.684;2022-09-29T07:03:30;12.50;99.90
21489;DHT22;10906;45.194;5.684;2022-09-29T07:06:14;12.60;99.90
21489;DHT22;10906;45.194;5.684;2022-09-29T07:08:59;12.60;99.90
21489;DHT22;10906;45.194;5.684;2022-09-29T07:11:49;12.70;99.90
21489;DHT22;10906;45.194;5.684;2022-09-29T07:14:33;12.70;99.90
21489;DHT22;10906;45.194;5.684;2022-09-29T07:17:20;12.70;99.90
21489;DHT22;10906;45.194;5.684;2022-09-29T07:20:05;12.70;99.90
21489;DHT22;10906;45.194;5.684;2022-09-29T07:22:50;12.80;99.90
21489;DHT22;10906;45.194;5.684;2022-09-29T07:25:35;12.80;99.90
21489;DHT22;10906;45.194;5.684;2022-09-29T07:28:19;12.80;99.90
21489;DHT22;10906;45.194;5.684;2022-09-29T07:31:06;12.80;99.90
21489;DHT22;10906;45.194;5.684;2022-09-29T07:33:50;12.80;99.90
21489;DHT22;10906;45.194;5.684;2022-09-29T07:36:35;12.80;99.90
21489;DHT22;10906;45.194;5.684;2022-09-29T07:39:21;12.80;99.90
21489;DHT22;10906;45.194;5.684;2022-09-29T07:42:06;12.90;99.90
21489;DHT22;10906;45.194;5.684;2022-09-29T07:44:51;12.90;99.90
21489;DHT22;10906;45.194;5.684;2022-09-29T07:47:35;12.90;99.90
21489;DHT22;10906;45.194;5.684;2022-09-29T07:50:19;12.90;99.90
21489;DHT22;10906;45.194;5.684;2022-09-29T07:53:03;12.90;99.90
21489;DHT22;10906;45.194;5.684;2022-09-29T07:55:47;12.90;99.90
21489;DHT22;10906;45.194;5.684;2022-09-29T07:58:32;13.00;99.90
21489;DHT22;10906;45.194;5.684;2022-09-29T08:01:18;12.90;99.90
21489;DHT22;10906;45.194;5.684;2022-09-29T08:04:03;12.90;99.90
21489;DHT22;10906;45.194;5.684;2022-09-29T08:06:47;13.00;99.90
21489;DHT22;10906;45.194;5.684;2022-09-29T08:09:31;13.00;99.90
21489;DHT22;10906;45.194;5.684;2022-09-29T08:12:15;13.00;99.90
21489;DHT22;10906;45.194;5.684;2022-09-29T08:14:59;13.00;99.90
21489;DHT22;10906;45.194;5.684;2022-09-29T08:17:44;13.00;99.90
21489;DHT22;10906;45.194;5.684;2022-09-29T08:20:28;13.00;99.90
21489;DHT22;10906;45.194;5.684;2022-09-29T08:23:12;13.10;99.90
21489;DHT22;10906;45.194;5.684;2022-09-29T08:26:03;13.10;99.90
21489;DHT22;10906;45.194;5.684;2022-09-29T08:28:48;13.10;99.90
21489;DHT22;10906;45.194;5.684;2022-09-29T08:31:32;13.10;99.90
21489;DHT22;10906;45.194;5.684;2022-09-29T08:34:17;13.20;99.90
21489;DHT22;10906;45.194;5.684;2022-09-29T08:37:01;13.20;99.90
21489;DHT22;10906;45.194;5.684;2022-09-29T08:39:45;13.20;99.90
21489;DHT22;10906;45.194;5.684;2022-09-29T08:42:41;13.30;99.90
21489;DHT22;10906;45.194;5.684;2022-09-29T08:45:33;13.30;99.90
21489;DHT22;10906;45.194;5.684;2022-09-29T08:48:24;13.40;99.90
21489;DHT22;10906;45.194;5.684;2022-09-29T08:51:32;13.50;99.90
21489;DHT22;10906;45.194;5.684;2022-09-29T08:54:26;13.50;99.90
21489;DHT22;10906;45.194;5.684;2022-09-29T08:57:14;13.50;99.90
21489;DHT22;10906;45.194;5.684;2022-09-29T09:00:06;13.50;99.90
21489;DHT22;10906;45.194;5.684;2022-09-29T09:03:00;13.60;99.90
21489;DHT22;10906;45.194;5.684;2022-09-29T09:05:56;13.60;99.90
21489;DHT22;10906;45.194;5.684;2022-09-29T09:09:10;13.60;99.90
21489;DHT22;10906;45.194;5.684;2022-09-29T09:15:34;13.60;99.90
21489;DHT22;10906;45.194;5.684;2022-09-29T09:18:29;13.60;99.90
21489;DHT22;10906;45.194;5.684;2022-09-29T09:24:43;13.80;99.90
21489;DHT22;10906;45.194;5.684;2022-09-29T09:27:39;13.80;99.90
21489;DHT22;10906;45.194;5.684;2022-09-29T09:30:29;13.80;99.90
21489;DHT22;10906;45.194;5.684;2022-09-29T09:33:22;13.90;99.90
21489;DHT22;10906;45.194;5.684;2022-09-29T09:36:08;13.90;99.90
21489;DHT22;10906;45.194;5.684;2022-09-29T09:41:58;14.00;99.90
21489;DHT22;10906;45.194;5.684;2022-09-29T09:44:51;14.10;99.90
21489;DHT22;10906;45.194;5.684;2022-09-29T09:47:40;14.20;99.90
21489;DHT22;10906;45.194;5.684;2022-09-29T09:50:26;14.30;99.90
21489;DHT22;10906;45.194;5.684;2022-09-29T09:53:31;14.30;99.90
21489;DHT22;10906;45.194;5.684;2022-09-29T10:02:15;14.40;99.90
21489;DHT22;10906;45.194;5.684;2022-09-29T10:05:01;14.50;99.90
21489;DHT22;10906;45.194;5.684;2022-09-29T10:07:46;14.70;99.90
21489;DHT22;10906;45.194;5.684;2022-09-29T10:10:32;14.80;99.90
21489;DHT22;10906;45.194;5.684;2022-09-29T10:13:16;14.80;99.90
21489;DHT22;10906;45.194;5.684;2022-09-29T10:18:55;14.80;99.90
21489;DHT22;10906;45.194;5.684;2022-09-29T10:21:41;14.70;99.90
21489;DHT22;10906;45.194;5.684;2022-09-29T10:24:28;14.60;99.90
21489;DHT22;10906;45.194;5.684;2022-09-29T10:27:21;14.60;99.90
21489;DHT22;10906;45.194;5.684;2022-09-29T10:30:17;14.60;99.90
21489;DHT22;10906;45.194;5.684;2022-09-29T10:33:04;14.50;99.90
21489;DHT22;10906;45.194;5.684;2022-09-29T10:35:50;14.40;99.90
21489;DHT22;10906;45.194;5.684;2022-09-29T10:38:47;14.40;99.90
21489;DHT22;10906;45.194;5.684;2022-09-29T10:41:49;14.40;99.90
21489;DHT22;10906;45.194;5.684;2022-09-29T10:44:38;14.40;99.90
21489;DHT22;10906;45.194;5.684;2022-09-29T10:47:22;14.40;99.90
21489;DHT22;10906;45.194;5.684;2022-09-29T10:50:11;14.30;99.90
21489;DHT22;10906;45.194;5.684;2022-09-29T10:52:57;14.40;99.90
21489;DHT22;10906;45.194;5.684;2022-09-29T10:55:48;14.30;99.90
21489;DHT22;10906;45.194;5.684;2022-09-29T10:58:36;14.30;99.90
21489;DHT22;10906;45.194;5.684;2022-09-29T11:01:23;14.30;99.90
21489;DHT22;10906;45.194;5.684;2022-09-29T11:07:08;14.30;99.90
21489;DHT22;10906;45.194;5.684;2022-09-29T11:09:53;14.30;99.90
21489;DHT22;10906;45.194;5.684;2022-09-29T11:20:18;13.90;99.90
21489;DHT22;10906;45.194;5.684;2022-09-29T11:23:27;14.30;99.90
21489;DHT22;10906;45.194;5.684;2022-09-29T12:16:56;14.10;99.90
21489;DHT22;10906;45.194;5.684;2022-09-29T12:19:41;15.00;99.90
21489;DHT22;10906;45.194;5.684;2022-09-29T12:22:27;14.80;99.90
21489;DHT22;10906;45.194;5.684;2022-09-29T12:25:37;14.10;99.90
21489;DHT22;10906;45.194;5.684;2022-09-29T12:31:47;14.90;99.90
21489;DHT22;10906;45.194;5.684;2022-09-29T12:38:35;13.80;99.90
21489;DHT22;10906;45.194;5.684;2022-09-29T12:41:39;14.20;99.90
21489;DHT22;10906;45.194;5.684;2022-09-29T12:51:29;13.60;99.90
21489;DHT22;10906;45.194;5.684;2022-09-29T12:57:38;13.60;99.90
21489;DHT22;10906;45.194;5.684;2022-09-29T13:00:48;13.60;99.90
21489;DHT22;10906;45.194;5.684;2022-09-29T13:24:41;13.90;99.90
21489;DHT22;10906;45.194;5.684;2022-09-29T13:31:45;14.00;99.90
21489;DHT22;10906;45.194;5.684;2022-09-29T13:34:51;14.10;99.90
21489;DHT22;10906;45.194;5.684;2022-09-29T13:41:43;14.30;99.90
21489;DHT22;10906;45.194;5.684;2022-09-29T13:44:39;14.30;99.90
21489;DHT22;10906;45.194;5.684;2022-09-29T13:47:33;13.00;99.90
21489;DHT22;10906;45.194;5.684;2022-09-29T13:50:57;14.60;99.90
21489;DHT22;10906;45.194;5.684;2022-09-29T13:54:21;14.40;99.90
21489;DHT22;10906;45.194;5.684;2022-09-29T13:57:49;14.10;99.90
21489;DHT22;10906;45.194;5.684;2022-09-29T14:00:51;14.70;99.90
21489;DHT22;10906;45.194;5.684;2022-09-29T14:03:54;14.50;99.90
21489;DHT22;10906;45.194;5.684;2022-09-29T14:07:34;14.50;99.90
21489;DHT22;10906;45.194;5.684;2022-09-29T14:13:25;14.80;99.90
21489;DHT22;10906;45.194;5.684;2022-09-29T14:19:54;15.20;99.90
21489;DHT22;10906;45.194;5.684;2022-09-29T14:34:33;15.20;99.90
21489;DHT22;10906;45.194;5.684;2022-09-29T15:05:36;15.80;99.90
21489;DHT22;10906;45.194;5.684;2022-09-29T15:08:31;15.60;99.90
21489;DHT22;10906;45.194;5.684;2022-09-29T15:28:21;15.80;99.90
21489;DHT22;10906;45.194;5.684;2022-09-29T15:34:44;16.00;99.90
21489;DHT22;10906;45.194;5.684;2022-09-29T15:41:01;16.30;99.90
21489;DHT22;10906;45.194;5.684;2022-09-29T15:44:00;15.50;99.90
21489;DHT22;10906;45.194;5.684;2022-09-29T15:47:01;16.50;99.90
21489;DHT22;10906;45.194;5.684;2022-09-29T15:49:54;16.20;99.90
21489;DHT22;10906;45.194;5.684;2022-09-29T15:52:46;16.30;99.90
21489;DHT22;10906;45.194;5.684;2022-09-29T15:55:38;16.10;99.90
21489;DHT22;10906;45.194;5.684;2022-09-29T16:01:11;15.60;99.90
21489;DHT22;10906;45.194;5.684;2022-09-29T16:04:00;15.40;99.90
21489;DHT22;10906;45.194;5.684;2022-09-29T16:07:00;15.20;99.90
21489;DHT22;10906;45.194;5.684;2022-09-29T16:09:47;15.10;99.90
21489;DHT22;10906;45.194;5.684;2022-09-29T16:12:36;14.90;99.90
21489;DHT22;10906;45.194;5.684;2022-09-29T16:18:30;14.90;99.90
21489;DHT22;10906;45.194;5.684;2022-09-29T16:21:21;14.80;99.90
21489;DHT22;10906;45.194;5.684;2022-09-29T16:27:49;14.60;99.90
21489;DHT22;10906;45.194;5.684;2022-09-29T16:31:19;14.50;99.90
21489;DHT22;10906;45.194;5.684;2022-09-29T16:37:14;14.30;99.90
21489;DHT22;10906;45.194;5.684;2022-09-29T16:40:15;14.50;99.90
21489;DHT22;10906;45.194;5.684;2022-09-29T16:43:00;14.30;99.90
21489;DHT22;10906;45.194;5.684;2022-09-29T16:45:50;14.30;99.90
21489;DHT22;10906;45.194;5.684;2022-09-29T16:48:40;14.20;99.90
21489;DHT22;10906;45.194;5.684;2022-09-29T16:51:26;14.10;99.90
21489;DHT22;10906;45.194;5.684;2022-09-29T16:54:32;14.00;99.90
21489;DHT22;10906;45.194;5.684;2022-09-29T16:57:30;13.90;99.90
21489;DHT22;10906;45.194;5.684;2022-09-29T17:00:16;13.80;99.90
21489;DHT22;10906;45.194;5.684;2022-09-29T17:03:02;13.60;99.90
21489;DHT22;10906;45.194;5.684;2022-09-29T17:05:50;13.60;99.90
21489;DHT22;10906;45.194;5.684;2022-09-29T17:08:35;13.70;99.90
21489;DHT22;10906;45.194;5.684;2022-09-29T17:11:20;13.70;99.90
21489;DHT22;10906;45.194;5.684;2022-09-29T17:14:09;13.70;99.90
21489;DHT22;10906;45.194;5.684;2022-09-29T17:16:54;13.70;99.90
21489;DHT22;10906;45.194;5.684;2022-09-29T17:19:39;13.50;99.90
21489;DHT22;10906;45.194;5.684;2022-09-29T17:25:07;13.40;99.90
21489;DHT22;10906;45.194;5.684;2022-09-29T17:27:53;13.40;99.90
21489;DHT22;10906;45.194;5.684;2022-09-29T17:30:55;12.30;99.90
21489;DHT22;10906;45.194;5.684;2022-09-29T17:33:40;13.30;99.90
21489;DHT22;10906;45.194;5.684;2022-09-29T17:36:25;13.90;99.90
21489;DHT22;10906;45.194;5.684;2022-09-29T17:39:09;13.10;99.90
21489;DHT22;10906;45.194;5.684;2022-09-29T17:41:53;13.10;99.90
21489;DHT22;10906;45.194;5.684;2022-09-29T17:44:38;13.60;99.90
21489;DHT22;10906;45.194;5.684;2022-09-29T17:47:25;13.00;99.90
21489;DHT22;10906;45.194;5.684;2022-09-29T17:50:26;12.90;99.90
21489;DHT22;10906;45.194;5.684;2022-09-29T17:53:12;12.90;99.90
21489;DHT22;10906;45.194;5.684;2022-09-29T17:55:58;12.80;99.90
21489;DHT22;10906;45.194;5.684;2022-09-29T17:58:42;12.80;99.90
21489;DHT22;10906;45.194;5.684;2022-09-29T18:01:27;12.80;99.90
21489;DHT22;10906;45.194;5.684;2022-09-29T18:04:12;12.80;99.90
21489;DHT22;10906;45.194;5.684;2022-09-29T18:06:56;13.00;99.90
21489;DHT22;10906;45.194;5.684;2022-09-29T18:09:40;12.70;99.90
21489;DHT22;10906;45.194;5.684;2022-09-29T18:12:24;12.80;99.90
21489;DHT22;10906;45.194;5.684;2022-09-29T18:15:08;12.60;99.90
21489;DHT22;10906;45.194;5.684;2022-09-29T18:17:58;12.50;99.90
21489;DHT22;10906;45.194;5.684;2022-09-29T18:20:43;12.60;99.90
21489;DHT22;10906;45.194;5.684;2022-09-29T18:23:31;12.50;99.90
21489;DHT22;10906;45.194;5.684;2022-09-29T18:26:16;12.50;99.90
21489;DHT22;10906;45.194;5.684;2022-09-29T18:29:13;13.00;99.90
21489;DHT22;10906;45.194;5.684;2022-09-29T18:31:58;12.30;99.90
21489;DHT22;10906;45.194;5.684;2022-09-29T18:34:43;12.20;99.90
21489;DHT22;10906;45.194;5.684;2022-09-29T18:37:28;12.30;99.90
21489;DHT22;10906;45.194;5.684;2022-09-29T18:40:13;12.20;99.90
21489;DHT22;10906;45.194;5.684;2022-09-29T18:42:57;12.20;99.90
21489;DHT22;10906;45.194;5.684;2022-09-29T18:45:42;12.20;99.90
21489;DHT22;10906;45.194;5.684;2022-09-29T18:48:27;12.20;99.90
21489;DHT22;10906;45.194;5.684;2022-09-29T18:51:12;13.40;99.90
21489;DHT22;10906;45.194;5.684;2022-09-29T18:53:56;13.30;99.90
21489;DHT22;10906;45.194;5.684;2022-09-29T18:56:41;13.20;99.90
21489;DHT22;10906;45.194;5.684;2022-09-29T18:59:26;12.10;99.90
21489;DHT22;10906;45.194;5.684;2022-09-29T19:02:11;12.10;99.90
21489;DHT22;10906;45.194;5.684;2022-09-29T19:04:56;12.10;99.90
21489;DHT22;10906;45.194;5.684;2022-09-29T19:07:40;12.10;99.90
21489;DHT22;10906;45.194;5.684;2022-09-29T19:10:25;12.10;99.90
21489;DHT22;10906;45.194;5.684;2022-09-29T19:13:11;12.30;99.90
21489;DHT22;10906;45.194;5.684;2022-09-29T19:15:57;12.00;99.90
21489;DHT22;10906;45.194;5.684;2022-09-29T19:18:42;12.10;99.90
21489;DHT22;10906;45.194;5.684;2022-09-29T19:21:27;12.00;99.90
21489;DHT22;10906;45.194;5.684;2022-09-29T19:24:14;12.00;99.90
21489;DHT22;10906;45.194;5.684;2022-09-29T19:27:15;12.00;99.90
21489;DHT22;10906;45.194;5.684;2022-09-29T19:35:05;11.80;99.90
21489;DHT22;10906;45.194;5.684;2022-09-29T19:37:50;11.60;99.90
21489;DHT22;10906;45.194;5.684;2022-09-29T19:40:35;11.60;99.90
21489;DHT22;10906;45.194;5.684;2022-09-29T19:43:41;11.70;99.90
21489;DHT22;10906;45.194;5.684;2022-09-29T19:46:30;12.00;99.90
21489;DHT22;10906;45.194;5.684;2022-09-29T19:49:26;10.80;99.90
21489;DHT22;10906;45.194;5.684;2022-09-29T19:52:16;11.60;99.90
21489;DHT22;10906;45.194;5.684;2022-09-29T19:55:02;11.70;99.90
21489;DHT22;10906;45.194;5.684;2022-09-29T19:57:49;11.70;99.90
21489;DHT22;10906;45.194;5.684;2022-09-29T20:00:34;11.70;99.90
21489;DHT22;10906;45.194;5.684;2022-09-29T20:03:18;11.70;99.90
21489;DHT22;10906;45.194;5.684;2022-09-29T20:06:04;11.70;99.90
21489;DHT22;10906;45.194;5.684;2022-09-29T20:08:49;11.70;99.90
21489;DHT22;10906;45.194;5.684;2022-09-29T20:11:34;11.70;99.90
21489;DHT22;10906;45.194;5.684;2022-09-29T20:14:22;11.70;99.90
21489;DHT22;10906;45.194;5.684;2022-09-29T20:17:07;11.70;99.90
21489;DHT22;10906;45.194;5.684;2022-09-29T20:19:51;11.60;99.90
21489;DHT22;10906;45.194;5.684;2022-09-29T20:22:36;11.60;99.90
21489;DHT22;10906;45.194;5.684;2022-09-29T20:25:20;11.70;99.90
21489;DHT22;10906;45.194;5.684;2022-09-29T20:28:08;11.70;99.90
21489;DHT22;10906;45.194;5.684;2022-09-29T20:30:57;11.60;99.90
21489;DHT22;10906;45.194;5.684;2022-09-29T20:33:42;11.70;99.90
21489;DHT22;10906;45.194;5.684;2022-09-29T20:36:26;11.70;99.90
21489;DHT22;10906;45.194;5.684;2022-09-29T20:39:11;11.60;99.90
21489;DHT22;10906;45.194;5.684;2022-09-29T20:41:56;11.50;99.90
21489;DHT22;10906;45.194;5.684;2022-09-29T20:44:41;11.40;99.90
21489;DHT22;10906;45.194;5.684;2022-09-29T20:47:26;11.40;99.90
21489;DHT22;10906;45.194;5.684;2022-09-29T20:50:11;11.40;99.90
21489;DHT22;10906;45.194;5.684;2022-09-29T20:52:55;11.30;99.90
21489;DHT22;10906;45.194;5.684;2022-09-29T20:55:40;11.40;99.90
21489;DHT22;10906;45.194;5.684;2022-09-29T20:58:24;11.40;99.90
21489;DHT22;10906;45.194;5.684;2022-09-29T21:01:14;11.40;99.90
21489;DHT22;10906;45.194;5.684;2022-09-29T21:04:07;11.30;99.90
21489;DHT22;10906;45.194;5.684;2022-09-29T21:06:51;11.10;99.90
21489;DHT22;10906;45.194;5.684;2022-09-29T21:09:36;11.10;99.90
21489;DHT22;10906;45.194;5.684;2022-09-29T21:12:20;11.10;99.90
21489;DHT22;10906;45.194;5.684;2022-09-29T21:15:05;11.50;99.90
21489;DHT22;10906;45.194;5.684;2022-09-29T21:17:50;11.10;99.90
21489;DHT22;10906;45.194;5.684;2022-09-29T21:20:34;11.20;99.90
21489;DHT22;10906;45.194;5.684;2022-09-29T21:23:19;11.20;99.90
21489;DHT22;10906;45.194;5.684;2022-09-29T21:26:08;11.30;99.90
21489;DHT22;10906;45.194;5.684;2022-09-29T21:28:59;11.30;99.90
21489;DHT22;10906;45.194;5.684;2022-09-29T21:31:45;11.10;99.90
21489;DHT22;10906;45.194;5.684;2022-09-29T21:34:29;11.10;99.90
21489;DHT22;10906;45.194;5.684;2022-09-29T21:37:14;11.10;99.90
21489;DHT22;10906;45.194;5.684;2022-09-29T21:40:00;10.60;99.90
21489;DHT22;10906;45.194;5.684;2022-09-29T21:42:44;11.10;99.90
21489;DHT22;10906;45.194;5.684;2022-09-29T21:45:29;11.00;99.90
21489;DHT22;10906;45.194;5.684;2022-09-29T21:48:14;11.10;99.90
21489;DHT22;10906;45.194;5.684;2022-09-29T21:51:07;11.30;99.90
21489;DHT22;10906;45.194;5.684;2022-09-29T21:53:52;11.10;99.90
21489;DHT22;10906;45.194;5.684;2022-09-29T21:56:39;11.10;99.90
21489;DHT22;10906;45.194;5.684;2022-09-29T21:59:24;11.10;99.90
